Detall de PIREP

Printer-friendly versionPDF version

[2013/02/14 10:22:00]
Flight IATA:CT2106
Pilot Number:042
Company ICAO:CAT
Aircraft Type:F100/A
PAX:18
Aircraft Registration:PFJ
Departing Airport: LEVC
Destination Airport: LEMD
Alternate Airport:LEMG
Online: VATSIM
Route:CENTA A33 PRADO
Flight Level:F230
No Slew and time accel
No pause
Crash detect
Detect pilot in Cockpit between each 30 and 45 minutes
10:22 Zero fuel Weight: 81827 Lbs, Fuel Weight: 22685 Lbs
10:22 VATSIM:LEVC 141000Z 26006KT 220V280 CAVOK 16/04 Q1022 NOSIG
10:22 VATSIM:LEMD 141000Z 33001KT CAVOK 07/03 Q1024 NOSIG
10:22 VOICE CATALONIAN
10:28 Parking Brakes off
10:34 Take-off
10:34 Take off Weight: 103989 Lbs
10:34 Wind: 213º @ 006 Knots Heading: 294º
10:34 POS N39º 29´ 29´´ W000º 29´ 14´´
10:34 Gear Up: 160 Knots
10:34 Flaps:2 at 160 Knots
10:34 Flaps:1 at 168 Knots
10:35 Flaps:0 at 197 Knots
10:46 TOC
10:46 Fuel Weight: 20468 Lb
10:46 TOD
10:46 Fuel Weight: 20464 Lb
10:46 TOC
10:46 Fuel Weight: 20458 Lb
10:46 TOD
10:46 Fuel Weight: 20375 Lb
10:49 Wind:304º@039 Knots Heading: 299º Ground Speed: 378 Knots Altitude 20918 ft
10:56 Flaps:1 at 247 Knots
11:04 Wind:229º@001 Knots Heading: 287º Ground Speed: 189 Knots Altitude 4704 ft
11:06 Flaps:2 at 169 Knots
11:06 Flaps:3 at 165 Knots
11:06 Gear Down: 165 Knots
11:07 Flaps:4 at 158 Knots
11:10 TouchDown:Rate -321 ft/min Speed: 116 Knots
11:10 VATSIM:LEMD 141100Z VRB01KT CAVOK 10/03 Q1025 NOSIG
11:10 Land
11:10 Wind:240º@018 Knots
11:10 Heading: 315º
11:10 Flight Duration: 00:36
11:10 Landing Weight: 100769 Lbs
11:10 POS N40º 29´ 02´´ W003º 32´ 49´´
11:30 Parking brakes on
11:30 Block to Block Duration: 01:02
11:30 Final Fuel: 17918 Lbls
11:30 Spent Fuel: 4766 Lbls
11:30 Flight Length: 158 NM
11:30 TOD Land Length: 99 NM

Exportar CSV

Powered by Drupal - Modified by Danger4k